Georgetown, SC

7:19 PM EDT on May 06, 2015 (GMT -0400)
Conway-Horry County | | Change Station
CLOSE
Current Station
Airport
Location: Conway,
Elevation: 33 ft
Nearby Weather Stations
Active Advisory: Flood Warning

Elev 33 ft 33.83 °N, 79.12 °W | Updated 4 minutes ago

Partly Cloudy
Partly Cloudy
72 °F
Feels Like 72 °F
N
6
Wind Variable Wind from ENE

Today
High -- | Low -- °F
--% Chance of Precip.
Yesterday
High -- | Low -- °F
Precip. -- in
6:24 AM 8:03 PM
Waning Gibbous, 92% visible
Pressure 30.11 in
Visibility 7.0 miles
Clouds Clear
Dew Point 55 °F
Humidity 57%
Rainfall 0.00 in
Snow Depth Not available.
UV 0 out of 12
Pollen 8.20 out of 12
Air Quality Not available.
Flu Activity Local Activity
METAR KHYW 062315Z AUTO 06005KT 7SM CLR 22/13 A3011 RMK AO2

More Conditions Fewer Conditions

Pressure 30.11 in
Visibility 7.0 miles
Clouds Clear
Dew Point 55 °F
Humidity 57%
Rainfall 0.00 in
Snow Depth Not available.
UV 0 out of 12
Pollen 8.20 out of 12
Air Quality Not available.
Flu Activity Local Activity
METAR KHYW 062315Z AUTO 06005KT 7SM CLR 22/13 A3011 RMK AO2

More Conditions Fewer Conditions

The National Hurricane Center is watching an area of disturbed weather just east of Florida for development. There is a 60% chance of intensification over the next 2 days and this system could become the first named tropical storm of the year. Many atmospheric models take the system close to the coasts of South Carolina and North Carolina later this week, but will have to wait for more information to be more confident in its track.

10-Day Weather Forecast

Almanac

Astronomy

May. 06, 2015 Rise Set
Actual Time
Civil Twilight
Nautical Twilight
Astronomical Twilight
Moon
Length of Visible Light
Length of Day
Tomorrow will be .
, % of the Moon is Illuminated

Today's Extremes

State Highs State Lows

Community

WunderPhotos

Upload Photos

1,819,039 photos uploaded!

WunderBlogs® & News

Nearby

Air Quality

  Air Quality AQ Index Pollutant
Not available.

Snow Depth

Station Depth Elevation

Earthquake Activity

City Distance Mag. Time & Date
Minimum magnitude displayed is 2.5.

Coastal Water Temperatures

Place Temperature

Stations

Nearby Weather Stations

Station Location Temp. Windchill Dew Point Humidity Wind Precip. Elev Updated Type
                   
Flood Warning
Statement as of 10:31 AM EDT on May 06, 2015

The Flood Warning continues for
the Santee river near Jamestown.
* At 9 am Wednesday the stage was 11.1 feet.
* Flood stage is 10.0 feet.
* Minor flooding is occurring.
* Forecast, the river is expected to drop below flood stage Thursday
night.
* At 12.0 feet, several dirt logging roads become impassable.


Lat... Lon 3347 8002 3354 7998 3335 7969 3327 7946
          3320 7951 3329 7976